createdAt,value
2018-04-14T00:00:13.137Z,97.41
2018-04-14T00:01:17.768Z,97.43
2018-04-14T00:02:22.373Z,97.45
2018-04-14T00:03:26.984Z,97.45
2018-04-14T00:04:31.549Z,97.46
2018-04-14T00:05:36.106Z,97.47
2018-04-14T00:06:41.417Z,97.51
2018-04-14T00:07:46.016Z,97.53
2018-04-14T00:08:50.687Z,97.55
2018-04-14T00:09:55.252Z,97.58
2018-04-14T00:10:59.893Z,97.60
2018-04-14T00:12:04.591Z,97.63
2018-04-14T00:13:10.606Z,97.63
2018-04-14T00:14:15.225Z,97.64
2018-04-14T00:15:19.837Z,97.65
2018-04-14T00:16:24.421Z,97.66
2018-04-14T00:17:28.984Z,97.69
2018-04-14T00:18:33.561Z,97.67
2018-04-14T00:19:38.461Z,97.70
2018-04-14T00:20:42.910Z,97.67
2018-04-14T00:21:47.405Z,97.68
2018-04-14T00:22:52.018Z,97.66
2018-04-14T00:23:56.524Z,97.62
2018-04-14T00:25:01.042Z,97.57
2018-04-14T00:26:05.920Z,97.54
2018-04-14T00:27:10.417Z,97.54
2018-04-14T00:28:14.944Z,97.58
2018-04-14T00:29:19.303Z,97.62
2018-04-14T00:30:23.733Z,97.63
2018-04-14T00:31:28.124Z,97.67
2018-04-14T00:32:32.820Z,97.70
2018-04-14T00:33:37.353Z,97.74
2018-04-14T00:34:42.638Z,97.78
2018-04-14T00:35:47.137Z,97.82
2018-04-14T00:36:51.632Z,97.86
2018-04-14T00:37:56.177Z,97.87
2018-04-14T00:39:01.201Z,97.91
2018-04-14T00:40:05.829Z,97.95
2018-04-14T00:41:10.408Z,97.97
2018-04-14T00:42:15.042Z,98.05
2018-04-14T00:43:19.649Z,98.04
2018-04-14T00:44:24.283Z,98.03
2018-04-14T00:45:29.256Z,97.97
2018-04-14T00:46:33.858Z,97.97
2018-04-14T00:47:38.413Z,97.95
2018-04-14T00:48:42.966Z,97.93
2018-04-14T00:49:47.468Z,97.91
2018-04-14T00:50:52.035Z,97.93
2018-04-14T00:51:56.894Z,97.90
2018-04-14T00:53:05.728Z,97.93
2018-04-14T00:54:10.300Z,97.93
2018-04-14T00:55:15.329Z,97.97
2018-04-14T00:56:21.411Z,98.02
2018-04-14T00:57:26.090Z,98.03
2018-04-14T00:58:31.049Z,98.06
2018-04-14T00:59:35.732Z,98.07
2018-04-14T01:00:40.288Z,98.11
2018-04-14T01:01:46.399Z,98.17
2018-04-14T01:02:50.966Z,98.20
2018-04-14T01:03:55.522Z,98.25
2018-04-14T01:05:00.523Z,98.27
2018-04-14T01:06:05.178Z,98.33
2018-04-14T01:07:09.782Z,98.39
2018-04-14T01:08:18.214Z,98.41
2018-04-14T01:09:22.737Z,98.44
2018-04-14T01:10:27.754Z,98.52
2018-04-14T01:11:32.303Z,98.51
2018-04-14T01:12:36.868Z,98.57
2018-04-14T01:13:41.491Z,98.60
2018-04-14T01:14:46.125Z,98.61
2018-04-14T01:15:50.728Z,98.65
2018-04-14T01:16:55.654Z,98.66
2018-04-14T01:18:00.271Z,98.69
2018-04-14T01:19:05.164Z,98.76
2018-04-14T01:20:10.573Z,98.76
2018-04-14T01:21:15.434Z,98.80
2018-04-14T01:22:20.026Z,98.80
2018-04-14T01:23:24.972Z,98.84
2018-04-14T01:24:29.702Z,98.86
2018-04-14T01:25:34.372Z,98.88
2018-04-14T01:26:39.059Z,98.89
2018-04-14T01:27:43.700Z,98.89
2018-04-14T01:28:48.338Z,98.93
2018-04-14T01:29:53.263Z,98.97
2018-04-14T01:30:58.280Z,99.00
2018-04-14T01:32:02.963Z,99.04
2018-04-14T01:33:07.489Z,99.05
2018-04-14T01:34:12.097Z,99.10
2018-04-14T01:35:16.605Z,99.16
2018-04-14T01:36:21.453Z,99.19
2018-04-14T01:37:25.992Z,99.22
2018-04-14T01:38:30.602Z,99.24
2018-04-14T01:39:35.267Z,99.28
2018-04-14T01:40:39.894Z,99.28
2018-04-14T01:41:44.758Z,99.34
2018-04-14T01:42:49.484Z,99.33
2018-04-14T01:43:54.136Z,99.40
2018-04-14T01:44:59.117Z,99.39
2018-04-14T01:46:03.712Z,99.42
2018-04-14T01:47:08.185Z,99.47
2018-04-14T01:48:12.636Z,99.48
2018-04-14T01:49:17.512Z,99.52
2018-04-14T01:50:22.069Z,99.54
2018-04-14T01:51:26.685Z,99.58
2018-04-14T01:52:31.316Z,99.62
2018-04-14T01:53:35.971Z,99.64
2018-04-14T01:54:40.629Z,99.63
2018-04-14T01:55:45.589Z,99.60
2018-04-14T01:56:50.141Z,99.62
2018-04-14T01:57:54.691Z,99.61
2018-04-14T01:58:59.269Z,99.65
2018-04-14T02:00:03.876Z,99.62
2018-04-14T02:01:08.493Z,99.66
2018-04-14T02:02:13.477Z,99.67
2018-04-14T02:03:18.135Z,99.68
2018-04-14T02:04:22.622Z,99.71
2018-04-14T02:05:27.261Z,99.70
2018-04-14T02:06:31.896Z,99.71
2018-04-14T02:07:36.543Z,99.67
2018-04-14T02:08:41.470Z,99.67
2018-04-14T02:09:46.223Z,99.62
2018-04-14T02:10:50.879Z,99.61
2018-04-14T02:11:55.646Z,99.61
2018-04-14T02:13:00.314Z,99.64
2018-04-14T02:14:04.929Z,99.71
2018-04-14T02:15:09.869Z,99.74
2018-04-14T02:16:14.526Z,99.74
2018-04-14T02:17:19.190Z,99.75
2018-04-14T02:18:23.818Z,99.73
2018-04-14T02:19:28.433Z,99.74
2018-04-14T02:20:33.029Z,99.69
2018-04-14T02:21:38.601Z,99.70
2018-04-14T02:22:43.239Z,99.70
2018-04-14T02:23:47.856Z,99.71
2018-04-14T02:24:52.493Z,99.73
2018-04-14T02:25:57.174Z,99.75
2018-04-14T02:27:01.819Z,99.80
2018-04-14T02:28:06.839Z,99.84
2018-04-14T02:29:11.491Z,99.86
2018-04-14T02:30:16.186Z,99.85
2018-04-14T02:31:20.907Z,99.86
2018-04-14T02:32:25.506Z,99.88
2018-04-14T02:33:30.150Z,99.88
2018-04-14T02:34:36.005Z,99.87
2018-04-14T02:35:40.668Z,99.82
2018-04-14T02:36:45.522Z,99.84
2018-04-14T02:37:50.144Z,99.82
2018-04-14T02:38:54.764Z,99.83
2018-04-14T02:39:59.391Z,99.74
2018-04-14T02:41:04.340Z,99.74
2018-04-14T02:42:09.007Z,99.74
2018-04-14T02:43:13.573Z,99.76
2018-04-14T02:44:18.236Z,99.79
2018-04-14T02:45:22.697Z,99.82
2018-04-14T02:46:27.226Z,99.84
2018-04-14T02:47:31.968Z,99.85
2018-04-14T02:48:36.506Z,99.85
2018-04-14T02:49:41.099Z,99.85
2018-04-14T02:50:46.520Z,99.86
2018-04-14T02:51:51.068Z,99.84
2018-04-14T02:52:56.100Z,99.89
2018-04-14T02:54:00.938Z,99.91
2018-04-14T02:55:05.388Z,99.90
2018-04-14T02:56:09.895Z,99.94
2018-04-14T02:57:14.330Z,99.90
2018-04-14T02:58:19.435Z,99.91
2018-04-14T02:59:24.304Z,99.92
2018-04-14T03:00:29.173Z,99.92
2018-04-14T03:01:33.634Z,99.97
2018-04-14T03:02:38.161Z,99.98
2018-04-14T03:03:42.647Z,100.00
2018-04-14T03:04:47.141Z,100.00
2018-04-14T03:05:51.693Z,100.00
2018-04-14T03:06:56.651Z,100.00
2018-04-14T03:08:01.247Z,100.00
2018-04-14T03:09:06.915Z,100.00
2018-04-14T03:10:11.489Z,100.00
2018-04-14T03:11:16.054Z,100.00
2018-04-14T03:12:20.629Z,100.00
2018-04-14T03:13:25.466Z,100.00
2018-04-14T03:14:30.009Z,100.00
2018-04-14T03:15:34.628Z,100.00
2018-04-14T03:16:39.351Z,100.00
2018-04-14T03:17:44.009Z,100.00
2018-04-14T03:18:49.720Z,100.00
2018-04-14T03:19:54.396Z,100.00
2018-04-14T03:20:59.056Z,100.00
2018-04-14T03:22:03.772Z,100.00
2018-04-14T03:23:08.444Z,100.00
2018-04-14T03:24:13.078Z,100.00
2018-04-14T03:25:18.316Z,100.00
2018-04-14T03:26:22.950Z,100.00
2018-04-14T03:27:27.610Z,100.00
2018-04-14T03:28:32.092Z,100.00
2018-04-14T03:29:36.607Z,100.00
2018-04-14T03:30:41.082Z,100.00
2018-04-14T03:31:45.880Z,100.00
2018-04-14T03:32:50.273Z,100.00
2018-04-14T03:33:54.656Z,100.00
2018-04-14T03:34:59.133Z,100.00
2018-04-14T03:36:03.677Z,100.00
2018-04-14T03:37:08.246Z,100.00
2018-04-14T03:38:13.192Z,100.00
2018-04-14T03:39:17.869Z,100.00
2018-04-14T03:40:23.314Z,100.00
2018-04-14T03:41:28.208Z,100.00
2018-04-14T03:42:32.881Z,100.00
2018-04-14T03:43:37.603Z,100.00
2018-04-14T03:44:42.336Z,100.00
2018-04-14T03:45:46.654Z,100.00
2018-04-14T03:46:50.968Z,100.00
2018-04-14T03:47:55.272Z,100.00
2018-04-14T03:48:59.721Z,100.00
2018-04-14T03:50:04.328Z,100.00
2018-04-14T03:51:09.099Z,100.00
2018-04-14T03:52:13.671Z,100.00
2018-04-14T03:53:18.138Z,100.00
2018-04-14T03:54:22.644Z,100.00
2018-04-14T03:55:27.102Z,100.00
2018-04-14T03:56:31.566Z,100.00
2018-04-14T03:57:36.313Z,100.00
2018-04-14T03:58:40.831Z,100.00
2018-04-14T03:59:45.478Z,100.00
2018-04-14T04:00:50.153Z,100.00
2018-04-14T04:01:54.767Z,100.00
2018-04-14T04:02:59.383Z,100.00
2018-04-14T04:04:04.302Z,100.00
2018-04-14T04:05:09.947Z,100.00
2018-04-14T04:06:14.558Z,100.00
2018-04-14T04:07:19.196Z,100.00
2018-04-14T04:08:23.836Z,100.00
2018-04-14T04:09:28.509Z,100.00
2018-04-14T04:10:33.410Z,100.00
2018-04-14T04:11:38.058Z,100.00
2018-04-14T04:12:42.671Z,100.00
2018-04-14T04:13:47.310Z,100.00
2018-04-14T04:14:51.948Z,100.00
2018-04-14T04:15:56.655Z,100.00
2018-04-14T04:17:01.677Z,100.00
2018-04-14T04:18:07.000Z,100.00
2018-04-14T04:19:17.018Z,100.00
2018-04-14T04:20:24.432Z,100.00
2018-04-14T04:23:37.455Z,100.00
2018-04-14T04:24:47.137Z,100.00
2018-04-14T04:25:51.781Z,100.00
2018-04-14T04:26:56.397Z,100.00
2018-04-14T04:28:01.060Z,100.00
2018-04-14T04:29:05.716Z,100.00
2018-04-14T04:30:10.649Z,100.00
2018-04-14T04:31:15.306Z,100.00
2018-04-14T04:32:19.874Z,100.00
2018-04-14T04:33:24.496Z,100.00
2018-04-14T04:34:29.065Z,100.00
2018-04-14T04:35:33.643Z,100.00
2018-04-14T04:36:38.729Z,100.00
2018-04-14T04:37:43.387Z,100.00
2018-04-14T04:38:48.050Z,100.00
2018-04-14T04:39:52.719Z,100.00
2018-04-14T04:40:57.335Z,100.00
2018-04-14T04:42:02.685Z,100.00
2018-04-14T04:43:07.648Z,100.00
2018-04-14T04:44:12.269Z,100.00
2018-04-14T04:45:16.819Z,100.00
2018-04-14T04:46:21.497Z,100.00
2018-04-14T04:47:26.128Z,100.00
2018-04-14T04:48:30.817Z,100.00
2018-04-14T04:49:35.926Z,100.00
2018-04-14T04:50:40.452Z,100.00
2018-04-14T04:51:44.981Z,100.00
2018-04-14T04:52:49.576Z,100.00
2018-04-14T04:53:54.193Z,100.00
2018-04-14T04:54:58.837Z,100.00
2018-04-14T04:56:03.748Z,100.00
2018-04-14T04:57:08.454Z,100.00
2018-04-14T04:58:13.392Z,100.00
2018-04-14T04:59:18.153Z,100.00
2018-04-14T05:00:22.767Z,100.00
2018-04-14T05:01:27.786Z,100.00
2018-04-14T05:02:32.769Z,100.00
2018-04-14T05:03:37.425Z,100.00
2018-04-14T05:04:42.043Z,100.00
2018-04-14T05:05:46.700Z,100.00
2018-04-14T05:06:51.339Z,100.00
2018-04-14T05:07:55.968Z,100.00
2018-04-14T05:09:01.021Z,100.00
2018-04-14T05:10:05.676Z,100.00
2018-04-14T05:11:10.248Z,100.00
2018-04-14T05:12:14.797Z,100.00
2018-04-14T05:13:19.742Z,100.00
2018-04-14T05:14:24.338Z,100.00
2018-04-14T05:15:29.100Z,100.00
2018-04-14T05:16:33.563Z,100.00
2018-04-14T05:17:38.055Z,100.00
2018-04-14T05:18:42.497Z,100.00
2018-04-14T05:19:47.112Z,100.00
2018-04-14T05:20:51.716Z,100.00
2018-04-14T05:21:56.664Z,100.00
2018-04-14T05:23:01.237Z,100.00
2018-04-14T05:24:05.680Z,100.00
2018-04-14T05:25:10.045Z,100.00
2018-04-14T05:26:14.432Z,100.00
2018-04-14T05:27:18.908Z,100.00
2018-04-14T05:28:24.501Z,100.00
2018-04-14T05:29:29.042Z,100.00
2018-04-14T05:30:33.500Z,100.00
2018-04-14T05:31:37.957Z,100.00
2018-04-14T05:32:42.471Z,100.00
2018-04-14T05:33:47.076Z,100.00
2018-04-14T05:34:51.932Z,100.00
2018-04-14T05:35:56.850Z,100.00
2018-04-14T05:37:01.646Z,100.00
2018-04-14T05:38:06.189Z,100.00
2018-04-14T05:39:11.055Z,100.00
2018-04-14T05:40:15.610Z,100.00
2018-04-14T05:41:20.221Z,100.00
2018-04-14T05:42:24.791Z,99.98
2018-04-14T05:43:29.327Z,99.98
2018-04-14T05:44:33.938Z,99.86
2018-04-14T05:45:38.586Z,99.83
2018-04-14T05:46:43.654Z,99.75
2018-04-14T05:47:48.336Z,99.70
2018-04-14T05:48:52.976Z,99.61
2018-04-14T05:49:57.548Z,99.57
2018-04-14T05:51:02.122Z,99.50
2018-04-14T05:52:06.779Z,99.43
2018-04-14T05:53:11.848Z,99.32
2018-04-14T05:54:16.485Z,99.28
2018-04-14T05:55:21.005Z,99.26
2018-04-14T05:56:25.622Z,99.24
2018-04-14T05:57:30.171Z,99.23
2018-04-14T05:58:34.820Z,99.29
2018-04-14T05:59:39.758Z,99.26
2018-04-14T06:00:44.414Z,99.24
2018-04-14T06:01:49.060Z,99.16
2018-04-14T06:02:53.692Z,99.11
2018-04-14T06:03:58.259Z,99.05
2018-04-14T06:05:02.822Z,98.94
2018-04-14T06:06:07.690Z,98.85
2018-04-14T06:07:12.259Z,98.91
2018-04-14T06:08:16.816Z,98.86
2018-04-14T06:09:22.553Z,98.83
2018-04-14T06:10:27.050Z,98.78
2018-04-14T06:11:31.530Z,98.71
2018-04-14T06:12:36.275Z,98.71
2018-04-14T06:13:40.733Z,98.62
2018-04-14T06:14:45.312Z,98.55
2018-04-14T06:15:51.018Z,98.47
2018-04-14T06:16:57.992Z,98.37
2018-04-14T06:18:02.599Z,98.24
2018-04-14T06:19:07.408Z,98.20
2018-04-14T06:20:11.933Z,98.10
2018-04-14T06:21:16.566Z,97.97
2018-04-14T06:22:21.314Z,97.88
2018-04-14T06:23:25.804Z,97.71
2018-04-14T06:24:30.259Z,97.51
2018-04-14T06:25:35.031Z,97.25
2018-04-14T06:26:39.515Z,96.52
2018-04-14T06:27:44.189Z,95.91
2018-04-14T06:28:48.900Z,95.45
2018-04-14T06:29:53.565Z,95.20
2018-04-14T06:30:58.665Z,95.07
2018-04-14T06:32:03.597Z,94.99
2018-04-14T06:33:08.252Z,95.07
2018-04-14T06:34:12.852Z,95.16
2018-04-14T06:35:17.438Z,95.26
2018-04-14T06:36:22.068Z,95.28
2018-04-14T06:37:26.631Z,95.32
2018-04-14T06:38:31.511Z,95.25
2018-04-14T06:39:36.092Z,95.24
2018-04-14T06:40:40.664Z,95.42
2018-04-14T06:41:45.341Z,95.67
2018-04-14T06:42:50.851Z,95.55
2018-04-14T06:43:55.471Z,95.60
2018-04-14T06:45:00.362Z,95.51
2018-04-14T06:46:05.253Z,95.46
2018-04-14T06:47:09.923Z,95.22
2018-04-14T06:48:14.510Z,95.11
2018-04-14T06:49:19.130Z,95.22
2018-04-14T06:50:23.578Z,95.46
2018-04-14T06:51:28.309Z,95.69
2018-04-14T06:52:32.832Z,95.80
2018-04-14T06:53:37.548Z,95.90
2018-04-14T06:54:42.197Z,96.01
2018-04-14T06:55:47.163Z,96.10
2018-04-14T06:56:51.756Z,96.05
2018-04-14T06:57:56.625Z,96.03
2018-04-14T06:59:02.162Z,96.06
2018-04-14T07:00:06.761Z,96.16
2018-04-14T07:01:12.189Z,96.05
2018-04-14T07:02:16.747Z,96.06
2018-04-14T07:03:21.372Z,96.03
2018-04-14T07:04:26.212Z,96.06
2018-04-14T07:05:30.877Z,95.94
2018-04-14T07:06:35.507Z,95.96
2018-04-14T07:07:40.181Z,95.85
2018-04-14T07:08:44.817Z,95.73
2018-04-14T07:09:49.351Z,95.54
2018-04-14T07:10:54.300Z,95.28
2018-04-14T07:11:58.848Z,95.03
2018-04-14T07:13:24.037Z,94.55
2018-04-14T07:14:28.595Z,94.53
2018-04-14T07:15:33.516Z,94.25
2018-04-14T07:16:38.249Z,93.89
2018-04-14T07:17:43.067Z,93.83
2018-04-14T07:18:47.740Z,93.66
2018-04-14T07:19:52.348Z,93.18
2018-04-14T07:20:56.953Z,92.63
2018-04-14T07:22:01.533Z,92.05
2018-04-14T07:23:06.220Z,91.74
2018-04-14T07:24:11.240Z,91.21
2018-04-14T07:25:15.910Z,90.72
2018-04-14T07:26:20.591Z,90.13
2018-04-14T07:27:25.230Z,89.49
2018-04-14T07:28:30.344Z,88.76
2018-04-14T07:29:35.779Z,88.53
2018-04-14T07:30:40.909Z,87.96
2018-04-14T07:31:47.301Z,87.13
2018-04-14T07:32:52.898Z,86.75
2018-04-14T07:33:58.693Z,86.69
2018-04-14T07:35:04.291Z,86.10
2018-04-14T07:36:09.148Z,85.56
2018-04-14T07:37:13.775Z,85.33
2018-04-14T07:38:18.518Z,85.53
2018-04-14T07:39:23.030Z,85.21
2018-04-14T07:40:27.625Z,85.08
2018-04-14T07:41:32.095Z,84.86
2018-04-14T07:42:37.239Z,84.75
2018-04-14T07:43:41.922Z,84.47
2018-04-14T07:44:47.385Z,84.22
2018-04-14T07:45:53.692Z,83.97
2018-04-14T07:46:58.407Z,83.93
2018-04-14T07:48:03.490Z,83.04
2018-04-14T07:49:09.579Z,82.76
2018-04-14T07:50:15.955Z,82.44
2018-04-14T07:51:20.754Z,81.56
2018-04-14T07:52:26.203Z,81.51
2018-04-14T07:53:31.297Z,81.31
2018-04-14T07:54:36.666Z,81.82
2018-04-14T07:55:42.054Z,81.21
2018-04-14T07:56:47.388Z,80.73
2018-04-14T07:57:53.007Z,80.42
2018-04-14T07:58:59.489Z,79.73
2018-04-14T08:00:04.882Z,79.11
2018-04-14T08:01:10.510Z,79.18
2018-04-14T08:02:16.077Z,79.32
2018-04-14T08:03:21.789Z,79.40
2018-04-14T08:04:27.118Z,79.31
2018-04-14T08:05:34.801Z,78.72
2018-04-14T08:06:39.734Z,77.75
2018-04-14T08:07:44.498Z,78.00
2018-04-14T08:08:49.419Z,78.03
2018-04-14T08:09:55.710Z,77.67
2018-04-14T08:11:00.562Z,77.55
2018-04-14T08:12:05.937Z,77.28
2018-04-14T08:13:12.788Z,76.86
2018-04-14T08:14:17.471Z,76.97
2018-04-14T08:15:23.252Z,76.68
2018-04-14T08:16:28.760Z,75.94
2018-04-14T08:17:34.730Z,74.16
2018-04-14T08:18:40.286Z,73.78
2018-04-14T08:19:46.390Z,73.66
2018-04-14T08:20:51.263Z,73.34
2018-04-14T08:21:56.047Z,72.98
2018-04-14T08:23:01.752Z,72.32
2018-04-14T08:24:07.251Z,71.86
2018-04-14T08:25:12.593Z,71.10
2018-04-14T08:26:31.702Z,70.71
2018-04-14T08:27:36.393Z,70.57
2018-04-14T08:28:41.101Z,70.30
2018-04-14T08:29:47.056Z,70.22
2018-04-14T08:30:52.905Z,69.73
2018-04-14T08:31:58.676Z,69.93
2018-04-14T08:33:03.770Z,69.27
2018-04-14T08:34:09.053Z,69.36
2018-04-14T08:35:14.796Z,68.18
2018-04-14T08:36:20.028Z,68.08
2018-04-14T08:37:25.535Z,67.98
2018-04-14T08:38:31.124Z,67.35
2018-04-14T08:39:36.602Z,66.68
2018-04-14T08:40:41.589Z,66.12
2018-04-14T08:41:46.970Z,65.92
2018-04-14T08:42:52.152Z,65.56
2018-04-14T08:43:59.671Z,65.22
2018-04-14T08:45:05.154Z,65.10
2018-04-14T08:46:10.674Z,64.33
2018-04-14T08:47:15.780Z,64.28
2018-04-14T08:48:20.566Z,65.10
2018-04-14T08:49:25.447Z,65.55
2018-04-14T08:50:30.490Z,65.52
2018-04-14T08:51:37.684Z,65.28
2018-04-14T08:52:42.854Z,64.56
2018-04-14T08:53:48.473Z,64.63
2018-04-14T08:54:53.885Z,64.08
2018-04-14T08:56:00.446Z,63.49
2018-04-14T08:57:07.162Z,62.68
2018-04-14T08:58:12.111Z,62.22
2018-04-14T08:59:17.849Z,62.16
2018-04-14T09:00:23.720Z,61.65
2018-04-14T09:01:29.154Z,61.28
2018-04-14T09:02:36.018Z,60.57
2018-04-14T09:03:41.130Z,60.43
2018-04-14T09:04:48.683Z,59.99
2018-04-14T09:05:53.304Z,60.24
2018-04-14T09:06:58.177Z,60.81
2018-04-14T09:08:03.261Z,61.43
2018-04-14T09:09:08.640Z,62.12
2018-04-14T09:10:17.337Z,61.72
2018-04-14T09:11:22.021Z,61.74
2018-04-14T09:12:26.588Z,61.89
2018-04-14T09:13:31.314Z,61.71
2018-04-14T09:14:36.056Z,62.34
2018-04-14T09:15:40.730Z,63.28
2018-04-14T09:16:45.801Z,63.46
2018-04-14T09:17:51.073Z,63.78
2018-04-14T09:18:55.795Z,63.76
2018-04-14T09:20:00.411Z,63.45
2018-04-14T09:21:05.056Z,63.14
2018-04-14T09:22:09.724Z,62.54
2018-04-14T09:23:14.725Z,62.16
2018-04-14T09:24:19.383Z,61.77
2018-04-14T09:25:24.076Z,61.58
2018-04-14T09:26:28.721Z,61.46
2018-04-14T09:27:33.356Z,60.38
2018-04-14T09:28:38.014Z,59.80
2018-04-14T09:29:43.145Z,59.58
2018-04-14T09:30:47.868Z,60.02
2018-04-14T09:31:53.056Z,60.43
2018-04-14T09:32:57.677Z,59.80
2018-04-14T09:34:02.504Z,59.25
2018-04-14T09:35:07.389Z,58.52
2018-04-14T09:36:12.528Z,58.01
2018-04-14T09:37:17.219Z,58.27
2018-04-14T09:38:21.987Z,58.57
2018-04-14T09:39:26.648Z,58.59
2018-04-14T09:40:31.344Z,58.47
2018-04-14T09:41:36.045Z,58.78
2018-04-14T09:42:41.144Z,59.13
2018-04-14T09:43:46.986Z,59.16
2018-04-14T09:44:53.139Z,60.00
2018-04-14T09:45:58.428Z,60.83
2018-04-14T09:47:03.312Z,61.23
2018-04-14T09:48:08.863Z,61.59
2018-04-14T09:49:15.318Z,61.30
2018-04-14T09:50:23.255Z,61.74
2018-04-14T09:51:29.025Z,61.71
2018-04-14T09:52:33.941Z,62.44
2018-04-14T09:53:39.035Z,63.53
2018-04-14T09:54:44.231Z,63.67
2018-04-14T09:55:51.027Z,63.19
2018-04-14T09:56:55.973Z,62.47
2018-04-14T09:58:02.097Z,61.85
2018-04-14T09:59:07.417Z,61.80
2018-04-14T10:00:17.266Z,61.50
2018-04-14T10:01:26.081Z,61.42
2018-04-14T10:02:33.544Z,61.00
2018-04-14T10:03:39.531Z,60.88
2018-04-14T10:04:45.736Z,60.58
2018-04-14T10:05:51.664Z,59.93
2018-04-14T10:06:57.482Z,60.08
2018-04-14T10:08:02.766Z,60.37
2018-04-14T10:09:09.451Z,60.77
2018-04-14T10:10:15.019Z,60.85
2018-04-14T10:11:21.002Z,60.92
2018-04-14T10:12:25.900Z,60.61
2018-04-14T10:13:33.115Z,60.50
2018-04-14T10:14:37.806Z,60.00
2018-04-14T10:15:43.307Z,59.37
2018-04-14T10:16:48.183Z,59.52
2018-04-14T10:17:52.970Z,59.60
2018-04-14T10:18:57.590Z,60.15
2018-04-14T10:20:03.026Z,61.22
2018-04-14T10:21:08.368Z,60.92
2018-04-14T10:22:15.298Z,61.38
2018-04-14T10:23:20.706Z,61.83
2018-04-14T10:24:25.683Z,61.96
2018-04-14T10:25:30.498Z,62.35
2018-04-14T10:26:38.107Z,62.60
2018-04-14T10:27:42.907Z,62.65
2018-04-14T10:28:47.832Z,62.70
2018-04-14T10:29:55.525Z,62.93
2018-04-14T10:31:00.305Z,62.95
2018-04-14T10:32:05.190Z,62.26
2018-04-14T10:33:11.368Z,62.43
2018-04-14T10:34:16.988Z,62.26
2018-04-14T10:35:21.795Z,61.77
2018-04-14T10:36:26.671Z,61.55
2018-04-14T10:37:32.406Z,60.71
2018-04-14T10:38:38.841Z,60.52
2018-04-14T10:39:44.189Z,59.85
2018-04-14T10:40:49.130Z,58.96
2018-04-14T10:41:54.567Z,58.26
2018-04-14T10:43:00.748Z,58.18
2018-04-14T10:44:06.601Z,58.22
2018-04-14T10:45:13.126Z,58.84
2018-04-14T10:46:18.251Z,59.00
2018-04-14T10:47:23.160Z,58.73
2018-04-14T10:48:29.040Z,58.92
2018-04-14T10:49:34.444Z,59.18
2018-04-14T10:50:39.818Z,59.33
2018-04-14T10:51:45.811Z,58.82
2018-04-14T10:52:51.418Z,58.39
2018-04-14T10:53:56.825Z,58.83
2018-04-14T10:55:02.015Z,59.07
2018-04-14T10:56:07.890Z,58.50
2018-04-14T10:57:13.641Z,58.29
2018-04-14T10:58:19.501Z,58.06
2018-04-14T10:59:25.502Z,58.71
2018-04-14T11:00:30.715Z,58.25
2018-04-14T11:01:35.514Z,58.41
2018-04-14T11:02:40.970Z,58.33
2018-04-14T11:03:46.709Z,57.92
2018-04-14T11:04:52.111Z,57.67
2018-04-14T11:05:57.682Z,57.94
2018-04-14T11:07:02.780Z,58.04
2018-04-14T11:08:08.305Z,57.84
2018-04-14T11:09:14.021Z,57.29
2018-04-14T11:10:19.574Z,57.12
2018-04-14T11:11:25.095Z,56.93
2018-04-14T11:12:31.404Z,56.88
2018-04-14T11:13:37.141Z,56.90
2018-04-14T11:14:41.781Z,57.24
2018-04-14T11:15:46.935Z,57.92
2018-04-14T11:16:53.121Z,58.00
2018-04-14T11:17:58.876Z,58.17
2018-04-14T11:19:05.075Z,58.56
2018-04-14T11:20:10.642Z,58.91
2018-04-14T11:21:15.720Z,58.71
2018-04-14T11:22:21.056Z,58.17
2018-04-14T11:23:26.013Z,57.56
2018-04-14T11:24:31.322Z,56.67
2018-04-14T11:25:36.591Z,56.68
2018-04-14T11:26:41.490Z,57.16
2018-04-14T11:27:46.924Z,57.22
2018-04-14T11:28:51.914Z,57.55
2018-04-14T11:29:58.184Z,57.54
2018-04-14T11:31:03.262Z,57.48
2018-04-14T11:32:09.515Z,57.23
2018-04-14T11:33:16.557Z,57.40
2018-04-14T11:34:22.092Z,57.54
2018-04-14T11:35:26.963Z,57.11
2018-04-14T11:36:32.332Z,57.03
2018-04-14T11:37:38.869Z,57.16
2018-04-14T11:38:45.287Z,56.92
2018-04-14T11:39:50.447Z,56.57
2018-04-14T11:40:56.070Z,56.35
2018-04-14T11:42:00.848Z,55.47
2018-04-14T11:43:06.585Z,55.60
2018-04-14T11:44:11.834Z,55.03
2018-04-14T11:45:18.533Z,54.72
2018-04-14T11:46:23.995Z,53.97
2018-04-14T11:47:29.581Z,54.36
2018-04-14T11:48:35.896Z,54.28
2018-04-14T11:49:40.948Z,54.18
2018-04-14T11:50:45.985Z,54.00
2018-04-14T11:51:53.209Z,53.79
2018-04-14T11:52:57.755Z,54.35
2018-04-14T11:54:02.584Z,54.33
2018-04-14T11:55:07.630Z,54.79
2018-04-14T11:56:12.733Z,54.78
2018-04-14T11:57:19.255Z,54.67
2018-04-14T11:58:24.751Z,54.97
2018-04-14T11:59:29.989Z,55.47
2018-04-14T12:00:35.176Z,55.58
2018-04-14T12:01:41.406Z,55.38
2018-04-14T12:02:47.105Z,55.38
2018-04-14T12:03:53.807Z,55.41
2018-04-14T12:04:59.027Z,54.66
2018-04-14T12:06:03.688Z,53.64
2018-04-14T12:07:09.452Z,53.89
2018-04-14T12:08:15.442Z,53.58
2018-04-14T12:09:21.217Z,53.26
2018-04-14T12:10:26.374Z,52.98
2018-04-14T12:11:31.994Z,53.11
2018-04-14T12:12:37.871Z,53.03
2018-04-14T12:13:43.620Z,53.39
2018-04-14T12:14:49.821Z,53.76
2018-04-14T12:15:55.111Z,53.87
2018-04-14T12:16:59.775Z,53.84
2018-04-14T12:18:05.927Z,54.28
2018-04-14T12:19:10.847Z,54.48
2018-04-14T12:20:16.189Z,54.60
2018-04-14T12:21:21.755Z,54.67
2018-04-14T12:22:27.747Z,54.78
2018-04-14T12:23:34.944Z,55.02
2018-04-14T12:24:39.887Z,55.10
2018-04-14T12:25:45.025Z,55.08
2018-04-14T12:26:51.108Z,54.93
2018-04-14T12:27:56.819Z,54.98
2018-04-14T12:29:01.651Z,54.40
2018-04-14T12:30:06.640Z,54.69
2018-04-14T12:31:13.285Z,54.86
2018-04-14T12:32:18.155Z,54.07
2018-04-14T12:33:23.996Z,53.84
2018-04-14T12:34:29.633Z,53.61
2018-04-14T12:35:35.159Z,53.00
2018-04-14T12:36:40.918Z,52.93
2018-04-14T12:37:46.307Z,53.17
2018-04-14T12:38:51.109Z,53.33
2018-04-14T12:39:57.126Z,52.78
2018-04-14T12:41:02.963Z,52.14
2018-04-14T12:42:07.984Z,52.04
2018-04-14T12:43:12.878Z,52.10
2018-04-14T12:44:18.949Z,52.53
2018-04-14T12:45:23.743Z,52.62
2018-04-14T12:46:28.853Z,52.98
2018-04-14T12:47:34.867Z,52.60
2018-04-14T12:48:40.369Z,52.59
2018-04-14T12:49:45.267Z,52.94
2018-04-14T12:50:51.048Z,52.52
2018-04-14T12:51:56.452Z,52.87
2018-04-14T12:53:02.041Z,52.79
2018-04-14T12:54:07.061Z,52.82
2018-04-14T12:55:12.947Z,52.80
2018-04-14T12:56:17.960Z,52.16
2018-04-14T12:57:23.118Z,52.17
2018-04-14T12:58:28.130Z,52.19
2018-04-14T12:59:33.525Z,51.33
2018-04-14T13:00:39.645Z,51.11
2018-04-14T13:01:45.630Z,51.29
2018-04-14T13:02:52.119Z,51.63
2018-04-14T13:03:57.029Z,51.69
2018-04-14T13:05:02.659Z,51.72
2018-04-14T13:06:09.291Z,51.61
2018-04-14T13:07:15.225Z,51.75
2018-04-14T13:08:20.062Z,51.77
2018-04-14T13:09:25.553Z,51.48
2018-04-14T13:10:30.195Z,51.22
2018-04-14T13:11:34.723Z,51.11
2018-04-14T13:12:39.937Z,51.25
2018-04-14T13:13:44.960Z,51.24
2018-04-14T13:14:50.780Z,51.38
2018-04-14T13:15:56.211Z,50.91
2018-04-14T13:17:01.846Z,50.24
2018-04-14T13:18:06.711Z,49.97
2018-04-14T13:19:12.836Z,49.94
2018-04-14T13:20:17.621Z,49.33
2018-04-14T13:21:23.405Z,49.06
2018-04-14T13:22:29.606Z,49.05
2018-04-14T13:23:35.054Z,49.53
2018-04-14T13:24:40.188Z,49.34
2018-04-14T13:25:45.195Z,49.13
2018-04-14T13:26:49.923Z,49.30
2018-04-14T13:27:54.491Z,49.13
2018-04-14T13:29:00.219Z,49.24
2018-04-14T13:30:05.243Z,49.05
2018-04-14T13:31:09.970Z,49.24
2018-04-14T13:32:14.604Z,49.48
2018-04-14T13:33:19.231Z,49.81
2018-04-14T13:34:23.923Z,50.23
2018-04-14T13:35:28.638Z,50.26
2018-04-14T13:36:33.811Z,49.86
2018-04-14T13:37:38.737Z,49.68
2018-04-14T13:38:43.380Z,49.78
2018-04-14T13:39:48.058Z,49.90
2018-04-14T13:40:52.634Z,50.04
2018-04-14T13:41:57.291Z,50.09
2018-04-14T13:43:02.309Z,50.35
2018-04-14T13:44:06.945Z,50.26
2018-04-14T13:45:11.767Z,50.51
2018-04-14T13:46:16.416Z,50.85
2018-04-14T13:47:21.051Z,51.34
2018-04-14T13:48:25.691Z,51.33
2018-04-14T13:49:30.880Z,51.38
2018-04-14T13:50:35.538Z,51.17
2018-04-14T13:51:40.204Z,51.19
2018-04-14T13:52:44.869Z,50.90
2018-04-14T13:53:50.505Z,51.01
2018-04-14T13:54:55.481Z,51.12
2018-04-14T13:56:00.153Z,50.98